Terminal Aerodrome Forecast
Issued by NWS Omaha/Valley, NE

Home | Current Version | Previous Version | Text Only | Print | Product List | Glossary On
Versions: 1 2 3 4 5 6 7 8 9 10 11 12 13 14 15 16 17 18 19 20 21 22 23 24 25 26 27 28
000
FTUS43 KOAX 202328
TAFLNK
TAF
KLNK 202328Z 2100/2124 17021G30KT P6SM SCT050
     FM210600 17019KT P6SM VCTS BKN040CB
     FM211200 18016KT P6SM BKN025
     FM211700 19012KT P6SM VCTS OVC030CB
      TEMPO 2118/2120 4SM -TSRA OVC020CB
     FM212100 32013KT P6SM VCSH OVC030=

USA.gov is the U.S. government's official web portal to all federal, state and local government web resources and services.